sensor_id;sensor_type;location;lat;lon;timestamp;P1;durP1;ratioP1;P2;durP2;ratioP2
56728;SDS011;42612;52.232;7.560;2023-04-15T00:00:41;2.40;;;2.20;;
56728;SDS011;42612;52.232;7.560;2023-04-15T00:03:07;2.42;;;2.22;;
56728;SDS011;42612;52.232;7.560;2023-04-15T00:05:33;3.20;;;2.45;;
56728;SDS011;42612;52.232;7.560;2023-04-15T00:07:59;3.38;;;2.63;;
56728;SDS011;42612;52.232;7.560;2023-04-15T00:10:25;3.65;;;2.65;;
56728;SDS011;42612;52.232;7.560;2023-04-15T00:12:52;3.00;;;2.42;;
56728;SDS011;42612;52.232;7.560;2023-04-15T00:15:18;2.88;;;2.50;;
56728;SDS011;42612;52.232;7.560;2023-04-15T00:17:44;2.35;;;2.03;;
56728;SDS011;42612;52.232;7.560;2023-04-15T00:20:10;4.63;;;2.75;;
56728;SDS011;42612;52.232;7.560;2023-04-15T00:22:36;1.90;;;1.70;;
56728;SDS011;42612;52.232;7.560;2023-04-15T00:25:02;3.83;;;2.50;;
56728;SDS011;42612;52.232;7.560;2023-04-15T00:27:28;2.45;;;2.15;;
56728;SDS011;42612;52.232;7.560;2023-04-15T00:29:54;4.10;;;2.42;;
56728;SDS011;42612;52.232;7.560;2023-04-15T00:32:20;3.40;;;2.40;;
56728;SDS011;42612;52.232;7.560;2023-04-15T00:34:46;3.78;;;2.63;;
56728;SDS011;42612;52.232;7.560;2023-04-15T00:37:11;2.60;;;2.40;;
56728;SDS011;42612;52.232;7.560;2023-04-15T00:39:37;6.30;;;2.90;;
56728;SDS011;42612;52.232;7.560;2023-04-15T00:42:03;2.90;;;2.25;;
56728;SDS011;42612;52.232;7.560;2023-04-15T00:44:29;2.40;;;2.20;;
56728;SDS011;42612;52.232;7.560;2023-04-15T00:46:56;4.25;;;2.53;;
56728;SDS011;42612;52.232;7.560;2023-04-15T00:49:23;2.40;;;2.15;;
56728;SDS011;42612;52.232;7.560;2023-04-15T00:51:49;2.58;;;2.33;;
56728;SDS011;42612;52.232;7.560;2023-04-15T00:54:15;2.95;;;2.50;;
56728;SDS011;42612;52.232;7.560;2023-04-15T00:56:41;2.90;;;2.42;;
56728;SDS011;42612;52.232;7.560;2023-04-15T00:59:07;3.53;;;2.70;;
56728;SDS011;42612;52.232;7.560;2023-04-15T01:01:34;4.15;;;2.47;;
56728;SDS011;42612;52.232;7.560;2023-04-15T01:04:02;4.57;;;2.70;;
56728;SDS011;42612;52.232;7.560;2023-04-15T01:06:29;3.35;;;2.58;;
56728;SDS011;42612;52.232;7.560;2023-04-15T01:11:22;2.92;;;2.40;;
56728;SDS011;42612;52.232;7.560;2023-04-15T01:13:49;3.08;;;2.10;;
56728;SDS011;42612;52.232;7.560;2023-04-15T01:16:17;3.38;;;2.85;;
56728;SDS011;42612;52.232;7.560;2023-04-15T01:18:43;2.75;;;2.55;;
56728;SDS011;42612;52.232;7.560;2023-04-15T01:21:10;2.97;;;2.72;;
56728;SDS011;42612;52.232;7.560;2023-04-15T01:23:36;3.88;;;3.03;;
56728;SDS011;42612;52.232;7.560;2023-04-15T01:26:03;3.63;;;2.53;;
56728;SDS011;42612;52.232;7.560;2023-04-15T01:28:30;3.65;;;2.42;;
56728;SDS011;42612;52.232;7.560;2023-04-15T01:31:06;3.60;;;2.93;;
56728;SDS011;42612;52.232;7.560;2023-04-15T01:33:37;2.50;;;2.28;;
56728;SDS011;42612;52.232;7.560;2023-04-15T01:38:32;2.40;;;2.20;;
56728;SDS011;42612;52.232;7.560;2023-04-15T01:40:58;3.70;;;2.58;;
56728;SDS011;42612;52.232;7.560;2023-04-15T01:43:24;3.15;;;2.83;;
56728;SDS011;42612;52.232;7.560;2023-04-15T01:45:50;3.47;;;2.42;;
56728;SDS011;42612;52.232;7.560;2023-04-15T01:48:16;4.30;;;2.72;;
56728;SDS011;42612;52.232;7.560;2023-04-15T01:50:42;3.25;;;2.63;;
56728;SDS011;42612;52.232;7.560;2023-04-15T01:53:09;2.55;;;2.30;;
56728;SDS011;42612;52.232;7.560;2023-04-15T01:55:34;3.47;;;2.50;;
56728;SDS011;42612;52.232;7.560;2023-04-15T01:58:01;3.42;;;2.20;;
56728;SDS011;42612;52.232;7.560;2023-04-15T02:00:27;5.28;;;3.22;;
56728;SDS011;42612;52.232;7.560;2023-04-15T02:02:53;3.85;;;3.42;;
56728;SDS011;42612;52.232;7.560;2023-04-15T02:05:19;3.85;;;2.80;;
56728;SDS011;42612;52.232;7.560;2023-04-15T02:07:45;3.25;;;2.40;;
56728;SDS011;42612;52.232;7.560;2023-04-15T02:10:11;5.50;;;3.25;;
56728;SDS011;42612;52.232;7.560;2023-04-15T02:12:40;4.97;;;3.13;;
56728;SDS011;42612;52.232;7.560;2023-04-15T02:15:06;4.38;;;2.80;;
56728;SDS011;42612;52.232;7.560;2023-04-15T02:17:34;3.63;;;3.10;;
56728;SDS011;42612;52.232;7.560;2023-04-15T02:20:03;3.17;;;2.80;;
56728;SDS011;42612;52.232;7.560;2023-04-15T02:22:32;4.03;;;3.25;;
56728;SDS011;42612;52.232;7.560;2023-04-15T02:24:58;4.40;;;3.13;;
56728;SDS011;42612;52.232;7.560;2023-04-15T02:27:24;3.08;;;2.55;;
56728;SDS011;42612;52.232;7.560;2023-04-15T02:29:50;3.85;;;2.88;;
56728;SDS011;42612;52.232;7.560;2023-04-15T02:32:16;5.30;;;3.08;;
56728;SDS011;42612;52.232;7.560;2023-04-15T02:34:42;3.83;;;3.17;;
56728;SDS011;42612;52.232;7.560;2023-04-15T02:37:11;4.18;;;3.25;;
56728;SDS011;42612;52.232;7.560;2023-04-15T02:39:38;4.63;;;2.70;;
56728;SDS011;42612;52.232;7.560;2023-04-15T02:42:03;4.82;;;2.92;;
56728;SDS011;42612;52.232;7.560;2023-04-15T02:44:30;3.45;;;3.00;;
56728;SDS011;42612;52.232;7.560;2023-04-15T02:46:56;3.90;;;3.22;;
56728;SDS011;42612;52.232;7.560;2023-04-15T02:49:23;3.83;;;3.00;;
56728;SDS011;42612;52.232;7.560;2023-04-15T02:51:49;3.30;;;3.00;;
56728;SDS011;42612;52.232;7.560;2023-04-15T02:54:16;3.92;;;3.03;;
56728;SDS011;42612;52.232;7.560;2023-04-15T02:56:46;3.53;;;2.75;;
56728;SDS011;42612;52.232;7.560;2023-04-15T02:59:12;4.32;;;3.65;;
56728;SDS011;42612;52.232;7.560;2023-04-15T03:01:38;6.35;;;3.78;;
56728;SDS011;42612;52.232;7.560;2023-04-15T03:04:04;5.15;;;3.53;;
56728;SDS011;42612;52.232;7.560;2023-04-15T03:06:31;3.58;;;2.95;;
56728;SDS011;42612;52.232;7.560;2023-04-15T03:08:57;4.25;;;3.40;;
56728;SDS011;42612;52.232;7.560;2023-04-15T03:11:24;4.83;;;3.10;;
56728;SDS011;42612;52.232;7.560;2023-04-15T03:13:51;3.35;;;3.03;;
56728;SDS011;42612;52.232;7.560;2023-04-15T03:16:16;3.65;;;3.15;;
56728;SDS011;42612;52.232;7.560;2023-04-15T03:18:42;3.75;;;3.20;;
56728;SDS011;42612;52.232;7.560;2023-04-15T03:21:08;4.20;;;3.55;;
56728;SDS011;42612;52.232;7.560;2023-04-15T03:23:33;6.15;;;3.17;;
56728;SDS011;42612;52.232;7.560;2023-04-15T03:26:03;4.60;;;2.97;;
56728;SDS011;42612;52.232;7.560;2023-04-15T03:28:29;3.80;;;2.90;;
56728;SDS011;42612;52.232;7.560;2023-04-15T03:30:56;4.97;;;3.55;;
56728;SDS011;42612;52.232;7.560;2023-04-15T03:33:23;5.20;;;3.53;;
56728;SDS011;42612;52.232;7.560;2023-04-15T03:35:49;4.07;;;3.65;;
56728;SDS011;42612;52.232;7.560;2023-04-15T03:38:16;5.13;;;3.33;;
56728;SDS011;42612;52.232;7.560;2023-04-15T03:40:42;6.55;;;4.00;;
56728;SDS011;42612;52.232;7.560;2023-04-15T03:43:08;5.72;;;3.85;;
56728;SDS011;42612;52.232;7.560;2023-04-15T03:45:34;4.63;;;3.70;;
56728;SDS011;42612;52.232;7.560;2023-04-15T03:47:59;5.18;;;4.07;;
56728;SDS011;42612;52.232;7.560;2023-04-15T03:50:25;4.93;;;3.53;;
56728;SDS011;42612;52.232;7.560;2023-04-15T03:52:51;5.03;;;3.85;;
56728;SDS011;42612;52.232;7.560;2023-04-15T03:55:17;4.50;;;3.60;;
56728;SDS011;42612;52.232;7.560;2023-04-15T03:57:44;4.55;;;3.80;;
56728;SDS011;42612;52.232;7.560;2023-04-15T04:00:10;4.95;;;3.30;;
56728;SDS011;42612;52.232;7.560;2023-04-15T04:02:36;5.63;;;3.90;;
56728;SDS011;42612;52.232;7.560;2023-04-15T04:05:02;4.90;;;3.70;;
56728;SDS011;42612;52.232;7.560;2023-04-15T04:07:28;6.18;;;3.83;;
56728;SDS011;42612;52.232;7.560;2023-04-15T04:09:56;4.40;;;3.60;;
56728;SDS011;42612;52.232;7.560;2023-04-15T04:12:22;5.32;;;3.45;;
56728;SDS011;42612;52.232;7.560;2023-04-15T04:14:48;4.88;;;3.40;;
56728;SDS011;42612;52.232;7.560;2023-04-15T04:17:13;5.10;;;3.60;;
56728;SDS011;42612;52.232;7.560;2023-04-15T04:19:39;5.10;;;4.13;;
56728;SDS011;42612;52.232;7.560;2023-04-15T04:22:05;4.55;;;3.53;;
56728;SDS011;42612;52.232;7.560;2023-04-15T04:24:31;4.15;;;3.50;;
56728;SDS011;42612;52.232;7.560;2023-04-15T04:26:56;5.22;;;3.80;;
56728;SDS011;42612;52.232;7.560;2023-04-15T04:29:22;5.72;;;3.90;;
56728;SDS011;42612;52.232;7.560;2023-04-15T04:31:48;5.10;;;3.50;;
56728;SDS011;42612;52.232;7.560;2023-04-15T04:34:14;4.38;;;3.50;;
56728;SDS011;42612;52.232;7.560;2023-04-15T04:36:40;5.80;;;4.18;;
56728;SDS011;42612;52.232;7.560;2023-04-15T04:39:06;8.82;;;4.03;;
56728;SDS011;42612;52.232;7.560;2023-04-15T04:41:31;6.65;;;4.95;;
56728;SDS011;42612;52.232;7.560;2023-04-15T04:43:57;5.45;;;4.30;;
56728;SDS011;42612;52.232;7.560;2023-04-15T04:46:23;6.95;;;4.32;;
56728;SDS011;42612;52.232;7.560;2023-04-15T04:48:49;8.32;;;4.43;;
56728;SDS011;42612;52.232;7.560;2023-04-15T04:51:14;7.20;;;4.57;;
56728;SDS011;42612;52.232;7.560;2023-04-15T04:53:40;4.35;;;3.60;;
56728;SDS011;42612;52.232;7.560;2023-04-15T04:56:07;7.32;;;4.10;;
56728;SDS011;42612;52.232;7.560;2023-04-15T04:58:33;5.18;;;4.28;;
56728;SDS011;42612;52.232;7.560;2023-04-15T05:00:58;5.65;;;3.85;;
56728;SDS011;42612;52.232;7.560;2023-04-15T05:03:24;5.15;;;3.92;;
56728;SDS011;42612;52.232;7.560;2023-04-15T05:05:50;4.97;;;4.15;;
56728;SDS011;42612;52.232;7.560;2023-04-15T05:08:16;7.35;;;4.18;;
56728;SDS011;42612;52.232;7.560;2023-04-15T05:10:41;5.00;;;4.03;;
56728;SDS011;42612;52.232;7.560;2023-04-15T05:13:07;5.30;;;4.15;;
56728;SDS011;42612;52.232;7.560;2023-04-15T05:15:33;6.68;;;4.40;;
56728;SDS011;42612;52.232;7.560;2023-04-15T05:18:00;4.43;;;3.63;;
56728;SDS011;42612;52.232;7.560;2023-04-15T05:20:26;6.00;;;4.40;;
56728;SDS011;42612;52.232;7.560;2023-04-15T05:22:53;9.32;;;4.35;;
56728;SDS011;42612;52.232;7.560;2023-04-15T05:25:18;4.47;;;3.85;;
56728;SDS011;42612;52.232;7.560;2023-04-15T05:27:44;7.18;;;5.13;;
56728;SDS011;42612;52.232;7.560;2023-04-15T05:30:10;5.35;;;4.25;;
56728;SDS011;42612;52.232;7.560;2023-04-15T05:32:36;5.25;;;4.25;;
56728;SDS011;42612;52.232;7.560;2023-04-15T05:35:01;7.22;;;5.47;;
56728;SDS011;42612;52.232;7.560;2023-04-15T05:37:27;5.82;;;4.72;;
56728;SDS011;42612;52.232;7.560;2023-04-15T05:39:53;7.80;;;5.07;;
56728;SDS011;42612;52.232;7.560;2023-04-15T05:42:18;6.88;;;5.38;;
56728;SDS011;42612;52.232;7.560;2023-04-15T05:44:44;5.68;;;4.82;;
56728;SDS011;42612;52.232;7.560;2023-04-15T05:47:10;7.65;;;5.43;;
56728;SDS011;42612;52.232;7.560;2023-04-15T05:49:36;7.65;;;5.15;;
56728;SDS011;42612;52.232;7.560;2023-04-15T05:52:02;7.43;;;5.22;;
56728;SDS011;42612;52.232;7.560;2023-04-15T05:54:28;7.30;;;4.93;;
56728;SDS011;42612;52.232;7.560;2023-04-15T05:56:53;7.60;;;5.10;;
56728;SDS011;42612;52.232;7.560;2023-04-15T05:59:21;7.47;;;5.18;;
56728;SDS011;42612;52.232;7.560;2023-04-15T06:01:47;8.90;;;5.82;;
56728;SDS011;42612;52.232;7.560;2023-04-15T06:04:13;9.45;;;6.53;;
56728;SDS011;42612;52.232;7.560;2023-04-15T06:06:39;8.45;;;5.68;;
56728;SDS011;42612;52.232;7.560;2023-04-15T06:09:05;8.40;;;6.32;;
56728;SDS011;42612;52.232;7.560;2023-04-15T06:11:30;7.60;;;5.63;;
56728;SDS011;42612;52.232;7.560;2023-04-15T06:13:56;9.13;;;6.20;;
56728;SDS011;42612;52.232;7.560;2023-04-15T06:16:22;8.63;;;6.32;;
56728;SDS011;42612;52.232;7.560;2023-04-15T06:18:47;10.45;;;6.97;;
56728;SDS011;42612;52.232;7.560;2023-04-15T06:21:13;9.48;;;6.65;;
56728;SDS011;42612;52.232;7.560;2023-04-15T06:23:40;10.38;;;6.82;;
56728;SDS011;42612;52.232;7.560;2023-04-15T06:26:06;9.88;;;6.28;;
56728;SDS011;42612;52.232;7.560;2023-04-15T06:28:32;7.70;;;6.32;;
56728;SDS011;42612;52.232;7.560;2023-04-15T06:30:58;14.00;;;7.35;;
56728;SDS011;42612;52.232;7.560;2023-04-15T06:33:25;11.45;;;6.68;;
56728;SDS011;42612;52.232;7.560;2023-04-15T06:35:51;10.75;;;6.50;;
56728;SDS011;42612;52.232;7.560;2023-04-15T06:38:16;9.25;;;6.30;;
56728;SDS011;42612;52.232;7.560;2023-04-15T06:40:42;8.25;;;5.88;;
56728;SDS011;42612;52.232;7.560;2023-04-15T06:43:08;8.73;;;5.97;;
56728;SDS011;42612;52.232;7.560;2023-04-15T06:45:34;12.38;;;7.50;;
56728;SDS011;42612;52.232;7.560;2023-04-15T06:47:59;9.43;;;6.03;;
56728;SDS011;42612;52.232;7.560;2023-04-15T06:50:25;10.18;;;6.47;;
56728;SDS011;42612;52.232;7.560;2023-04-15T06:52:52;9.45;;;5.82;;
56728;SDS011;42612;52.232;7.560;2023-04-15T06:55:19;10.68;;;7.05;;
56728;SDS011;42612;52.232;7.560;2023-04-15T06:57:45;10.35;;;7.20;;
56728;SDS011;42612;52.232;7.560;2023-04-15T07:00:11;8.63;;;6.20;;
56728;SDS011;42612;52.232;7.560;2023-04-15T07:02:37;13.40;;;7.18;;
56728;SDS011;42612;52.232;7.560;2023-04-15T07:05:03;11.18;;;6.55;;
56728;SDS011;42612;52.232;7.560;2023-04-15T07:09:56;11.63;;;6.68;;
56728;SDS011;42612;52.232;7.560;2023-04-15T07:12:22;11.70;;;6.43;;
56728;SDS011;42612;52.232;7.560;2023-04-15T07:14:48;10.43;;;6.22;;
56728;SDS011;42612;52.232;7.560;2023-04-15T07:17:13;9.77;;;6.57;;
56728;SDS011;42612;52.232;7.560;2023-04-15T07:19:39;10.65;;;6.65;;
56728;SDS011;42612;52.232;7.560;2023-04-15T07:22:05;11.77;;;7.13;;
56728;SDS011;42612;52.232;7.560;2023-04-15T07:24:31;8.63;;;6.18;;
56728;SDS011;42612;52.232;7.560;2023-04-15T07:26:57;10.57;;;6.35;;
56728;SDS011;42612;52.232;7.560;2023-04-15T07:29:23;9.00;;;5.95;;
56728;SDS011;42612;52.232;7.560;2023-04-15T07:31:51;10.00;;;6.93;;
56728;SDS011;42612;52.232;7.560;2023-04-15T07:34:17;9.50;;;6.57;;
56728;SDS011;42612;52.232;7.560;2023-04-15T07:36:43;12.18;;;6.43;;
56728;SDS011;42612;52.232;7.560;2023-04-15T07:39:10;11.05;;;6.82;;
56728;SDS011;42612;52.232;7.560;2023-04-15T07:41:35;8.27;;;6.10;;
56728;SDS011;42612;52.232;7.560;2023-04-15T07:44:02;11.05;;;6.57;;
56728;SDS011;42612;52.232;7.560;2023-04-15T07:46:28;10.30;;;6.40;;
56728;SDS011;42612;52.232;7.560;2023-04-15T07:48:53;8.00;;;5.95;;
56728;SDS011;42612;52.232;7.560;2023-04-15T07:51:19;10.05;;;5.93;;
56728;SDS011;42612;52.232;7.560;2023-04-15T07:53:45;7.97;;;5.25;;
56728;SDS011;42612;52.232;7.560;2023-04-15T07:56:12;9.25;;;5.72;;
56728;SDS011;42612;52.232;7.560;2023-04-15T07:58:38;8.73;;;5.72;;
56728;SDS011;42612;52.232;7.560;2023-04-15T08:01:04;8.68;;;5.45;;
56728;SDS011;42612;52.232;7.560;2023-04-15T08:03:29;9.18;;;6.40;;
56728;SDS011;42612;52.232;7.560;2023-04-15T08:05:56;9.20;;;5.75;;
56728;SDS011;42612;52.232;7.560;2023-04-15T08:08:25;7.63;;;5.10;;
56728;SDS011;42612;52.232;7.560;2023-04-15T08:10:51;8.18;;;5.15;;
56728;SDS011;42612;52.232;7.560;2023-04-15T08:13:17;9.40;;;6.10;;
56728;SDS011;42612;52.232;7.560;2023-04-15T08:15:43;7.93;;;5.28;;
56728;SDS011;42612;52.232;7.560;2023-04-15T08:18:08;8.00;;;5.63;;
56728;SDS011;42612;52.232;7.560;2023-04-15T08:20:35;9.10;;;5.53;;
56728;SDS011;42612;52.232;7.560;2023-04-15T08:23:01;6.07;;;4.63;;
56728;SDS011;42612;52.232;7.560;2023-04-15T08:25:28;7.22;;;4.85;;
56728;SDS011;42612;52.232;7.560;2023-04-15T08:27:54;8.07;;;4.63;;
56728;SDS011;42612;52.232;7.560;2023-04-15T08:30:21;8.80;;;5.25;;
56728;SDS011;42612;52.232;7.560;2023-04-15T08:32:48;11.02;;;4.45;;
56728;SDS011;42612;52.232;7.560;2023-04-15T08:35:15;12.98;;;4.97;;
56728;SDS011;42612;52.232;7.560;2023-04-15T08:37:40;7.28;;;4.57;;
56728;SDS011;42612;52.232;7.560;2023-04-15T08:40:06;7.53;;;4.78;;
56728;SDS011;42612;52.232;7.560;2023-04-15T08:42:40;7.07;;;4.63;;
56728;SDS011;42612;52.232;7.560;2023-04-15T08:45:09;7.57;;;5.22;;
56728;SDS011;42612;52.232;7.560;2023-04-15T08:47:35;7.78;;;4.20;;
56728;SDS011;42612;52.232;7.560;2023-04-15T08:50:04;6.88;;;4.47;;
56728;SDS011;42612;52.232;7.560;2023-04-15T08:52:33;6.57;;;5.05;;
56728;SDS011;42612;52.232;7.560;2023-04-15T08:54:59;8.43;;;5.55;;
56728;SDS011;42612;52.232;7.560;2023-04-15T08:57:27;9.18;;;4.88;;
56728;SDS011;42612;52.232;7.560;2023-04-15T08:59:56;5.72;;;4.18;;
56728;SDS011;42612;52.232;7.560;2023-04-15T09:02:22;7.38;;;4.65;;
56728;SDS011;42612;52.232;7.560;2023-04-15T09:04:52;7.43;;;4.93;;
56728;SDS011;42612;52.232;7.560;2023-04-15T09:07:18;7.60;;;4.50;;
56728;SDS011;42612;52.232;7.560;2023-04-15T09:09:43;5.75;;;4.50;;
56728;SDS011;42612;52.232;7.560;2023-04-15T09:12:10;7.47;;;4.90;;
56728;SDS011;42612;52.232;7.560;2023-04-15T09:14:36;7.70;;;5.28;;
56728;SDS011;42612;52.232;7.560;2023-04-15T09:17:09;9.35;;;4.78;;
56728;SDS011;42612;52.232;7.560;2023-04-15T09:19:35;6.57;;;4.72;;
56728;SDS011;42612;52.232;7.560;2023-04-15T09:22:01;8.10;;;5.32;;
56728;SDS011;42612;52.232;7.560;2023-04-15T09:24:37;6.45;;;4.90;;
56728;SDS011;42612;52.232;7.560;2023-04-15T09:27:05;5.35;;;3.83;;
56728;SDS011;42612;52.232;7.560;2023-04-15T09:29:31;8.35;;;4.45;;
56728;SDS011;42612;52.232;7.560;2023-04-15T09:32:08;7.07;;;4.90;;
56728;SDS011;42612;52.232;7.560;2023-04-15T09:34:38;7.35;;;4.78;;
56728;SDS011;42612;52.232;7.560;2023-04-15T09:37:04;5.43;;;3.95;;
56728;SDS011;42612;52.232;7.560;2023-04-15T09:39:46;7.93;;;4.60;;
56728;SDS011;42612;52.232;7.560;2023-04-15T09:42:14;5.85;;;3.88;;
56728;SDS011;42612;52.232;7.560;2023-04-15T09:44:41;6.07;;;4.40;;
56728;SDS011;42612;52.232;7.560;2023-04-15T09:47:07;6.40;;;4.60;;
56728;SDS011;42612;52.232;7.560;2023-04-15T09:49:33;7.97;;;4.78;;
56728;SDS011;42612;52.232;7.560;2023-04-15T09:52:00;5.97;;;4.38;;
56728;SDS011;42612;52.232;7.560;2023-04-15T09:54:36;4.75;;;3.78;;
56728;SDS011;42612;52.232;7.560;2023-04-15T09:57:06;7.05;;;4.45;;
56728;SDS011;42612;52.232;7.560;2023-04-15T09:59:34;5.93;;;4.38;;
56728;SDS011;42612;52.232;7.560;2023-04-15T10:02:00;6.00;;;4.10;;
56728;SDS011;42612;52.232;7.560;2023-04-15T10:04:32;6.72;;;3.15;;
56728;SDS011;42612;52.232;7.560;2023-04-15T10:07:02;6.05;;;3.85;;
56728;SDS011;42612;52.232;7.560;2023-04-15T10:09:30;4.10;;;3.22;;
56728;SDS011;42612;52.232;7.560;2023-04-15T10:11:57;4.75;;;3.38;;
56728;SDS011;42612;52.232;7.560;2023-04-15T10:14:23;5.13;;;3.55;;
56728;SDS011;42612;52.232;7.560;2023-04-15T10:16:52;4.90;;;2.80;;
56728;SDS011;42612;52.232;7.560;2023-04-15T10:19:25;5.28;;;3.50;;
56728;SDS011;42612;52.232;7.560;2023-04-15T10:21:58;4.65;;;3.42;;
56728;SDS011;42612;52.232;7.560;2023-04-15T10:24:24;5.03;;;3.47;;
56728;SDS011;42612;52.232;7.560;2023-04-15T10:26:50;3.13;;;2.47;;
56728;SDS011;42612;52.232;7.560;2023-04-15T10:29:17;4.78;;;3.05;;
56728;SDS011;42612;52.232;7.560;2023-04-15T10:31:43;3.85;;;3.05;;
56728;SDS011;42612;52.232;7.560;2023-04-15T10:34:09;3.75;;;2.78;;
56728;SDS011;42612;52.232;7.560;2023-04-15T10:36:36;4.30;;;2.75;;
56728;SDS011;42612;52.232;7.560;2023-04-15T10:39:02;4.55;;;3.20;;
56728;SDS011;42612;52.232;7.560;2023-04-15T10:42:04;4.85;;;3.13;;
56728;SDS011;42612;52.232;7.560;2023-04-15T10:44:35;2.75;;;2.50;;
56728;SDS011;42612;52.232;7.560;2023-04-15T10:47:17;2.65;;;2.35;;
56728;SDS011;42612;52.232;7.560;2023-04-15T10:49:54;3.70;;;2.85;;
56728;SDS011;42612;52.232;7.560;2023-04-15T10:52:23;3.95;;;2.88;;
56728;SDS011;42612;52.232;7.560;2023-04-15T10:57:54;4.25;;;2.80;;
56728;SDS011;42612;52.232;7.560;2023-04-15T11:00:28;5.25;;;3.25;;
56728;SDS011;42612;52.232;7.560;2023-04-15T11:08:12;3.45;;;2.70;;
56728;SDS011;42612;52.232;7.560;2023-04-15T11:13:14;3.05;;;2.55;;
56728;SDS011;42612;52.232;7.560;2023-04-15T11:15:42;3.10;;;2.60;;
56728;SDS011;42612;52.232;7.560;2023-04-15T11:20:37;3.72;;;2.42;;
56728;SDS011;42612;52.232;7.560;2023-04-15T11:25:32;2.35;;;2.13;;
56728;SDS011;42612;52.232;7.560;2023-04-15T11:27:59;2.67;;;2.30;;
56728;SDS011;42612;52.232;7.560;2023-04-15T11:30:27;4.47;;;2.63;;
56728;SDS011;42612;52.232;7.560;2023-04-15T11:33:00;2.83;;;2.20;;
56728;SDS011;42612;52.232;7.560;2023-04-15T11:35:28;2.65;;;2.25;;
56728;SDS011;42612;52.232;7.560;2023-04-15T11:37:54;3.60;;;2.30;;
56728;SDS011;42612;52.232;7.560;2023-04-15T11:40:28;2.75;;;2.28;;
56728;SDS011;42612;52.232;7.560;2023-04-15T11:43:14;3.35;;;2.25;;
56728;SDS011;42612;52.232;7.560;2023-04-15T11:48:23;2.63;;;2.10;;
56728;SDS011;42612;52.232;7.560;2023-04-15T11:51:03;2.90;;;1.98;;
56728;SDS011;42612;52.232;7.560;2023-04-15T11:53:35;4.97;;;2.40;;
56728;SDS011;42612;52.232;7.560;2023-04-15T11:56:01;2.83;;;2.40;;
56728;SDS011;42612;52.232;7.560;2023-04-15T11:58:29;2.25;;;1.90;;
56728;SDS011;42612;52.232;7.560;2023-04-15T12:00:58;2.47;;;2.28;;
56728;SDS011;42612;52.232;7.560;2023-04-15T12:03:28;2.15;;;1.95;;
56728;SDS011;42612;52.232;7.560;2023-04-15T12:08:56;4.80;;;1.95;;
56728;SDS011;42612;52.232;7.560;2023-04-15T12:13:51;2.35;;;1.83;;
56728;SDS011;42612;52.232;7.560;2023-04-15T12:16:20;3.00;;;1.95;;
56728;SDS011;42612;52.232;7.560;2023-04-15T12:18:47;4.63;;;2.22;;
56728;SDS011;42612;52.232;7.560;2023-04-15T12:21:18;3.58;;;2.05;;
56728;SDS011;42612;52.232;7.560;2023-04-15T12:23:52;2.47;;;2.08;;
56728;SDS011;42612;52.232;7.560;2023-04-15T12:29:11;3.38;;;1.70;;
56728;SDS011;42612;52.232;7.560;2023-04-15T12:31:46;2.17;;;1.85;;
56728;SDS011;42612;52.232;7.560;2023-04-15T12:37:07;1.98;;;1.88;;
56728;SDS011;42612;52.232;7.560;2023-04-15T12:39:35;3.22;;;2.13;;
56728;SDS011;42612;52.232;7.560;2023-04-15T12:42:07;2.10;;;1.90;;
56728;SDS011;42612;52.232;7.560;2023-04-15T12:44:34;2.35;;;2.13;;
56728;SDS011;42612;52.232;7.560;2023-04-15T12:47:01;1.92;;;1.80;;
56728;SDS011;42612;52.232;7.560;2023-04-15T12:49:27;4.22;;;2.10;;
56728;SDS011;42612;52.232;7.560;2023-04-15T12:51:54;1.92;;;1.83;;
56728;SDS011;42612;52.232;7.560;2023-04-15T12:54:21;2.55;;;1.75;;
56728;SDS011;42612;52.232;7.560;2023-04-15T12:56:48;2.50;;;2.08;;
56728;SDS011;42612;52.232;7.560;2023-04-15T12:59:14;1.85;;;1.75;;
56728;SDS011;42612;52.232;7.560;2023-04-15T13:01:42;1.98;;;1.67;;
56728;SDS011;42612;52.232;7.560;2023-04-15T13:04:09;2.80;;;1.95;;
56728;SDS011;42612;52.232;7.560;2023-04-15T13:06:35;1.70;;;1.52;;
56728;SDS011;42612;52.232;7.560;2023-04-15T13:09:01;3.03;;;1.77;;
56728;SDS011;42612;52.232;7.560;2023-04-15T13:11:27;1.88;;;1.60;;
56728;SDS011;42612;52.232;7.560;2023-04-15T13:16:22;2.15;;;1.88;;
56728;SDS011;42612;52.232;7.560;2023-04-15T13:18:48;1.85;;;1.33;;
56728;SDS011;42612;52.232;7.560;2023-04-15T13:21:14;1.50;;;1.40;;
56728;SDS011;42612;52.232;7.560;2023-04-15T13:23:41;2.97;;;1.50;;
56728;SDS011;42612;52.232;7.560;2023-04-15T13:26:06;1.83;;;1.30;;
56728;SDS011;42612;52.232;7.560;2023-04-15T13:28:32;1.67;;;1.45;;
56728;SDS011;42612;52.232;7.560;2023-04-15T13:30:58;1.65;;;1.55;;
56728;SDS011;42612;52.232;7.560;2023-04-15T13:33:25;2.58;;;1.67;;
56728;SDS011;42612;52.232;7.560;2023-04-15T13:35:52;2.05;;;1.77;;
56728;SDS011;42612;52.232;7.560;2023-04-15T13:38:17;1.67;;;1.38;;
56728;SDS011;42612;52.232;7.560;2023-04-15T13:40:44;1.20;;;1.10;;
56728;SDS011;42612;52.232;7.560;2023-04-15T13:43:10;2.63;;;1.60;;
56728;SDS011;42612;52.232;7.560;2023-04-15T13:45:36;2.35;;;1.30;;
56728;SDS011;42612;52.232;7.560;2023-04-15T13:48:02;1.60;;;1.50;;
56728;SDS011;42612;52.232;7.560;2023-04-15T13:50:28;1.60;;;1.50;;
56728;SDS011;42612;52.232;7.560;2023-04-15T13:52:53;1.95;;;1.83;;
56728;SDS011;42612;52.232;7.560;2023-04-15T13:55:19;1.85;;;1.38;;
56728;SDS011;42612;52.232;7.560;2023-04-15T13:57:45;1.30;;;1.20;;
56728;SDS011;42612;52.232;7.560;2023-04-15T14:00:11;1.10;;;1.10;;
56728;SDS011;42612;52.232;7.560;2023-04-15T14:02:38;1.40;;;1.00;;
56728;SDS011;42612;52.232;7.560;2023-04-15T14:05:05;1.25;;;1.05;;
56728;SDS011;42612;52.232;7.560;2023-04-15T14:07:32;1.30;;;1.20;;
56728;SDS011;42612;52.232;7.560;2023-04-15T14:09:58;1.38;;;0.90;;
56728;SDS011;42612;52.232;7.560;2023-04-15T14:12:24;0.98;;;0.98;;
56728;SDS011;42612;52.232;7.560;2023-04-15T14:14:50;1.50;;;1.30;;
56728;SDS011;42612;52.232;7.560;2023-04-15T14:17:16;0.95;;;0.95;;
56728;SDS011;42612;52.232;7.560;2023-04-15T14:19:42;1.08;;;1.08;;
56728;SDS011;42612;52.232;7.560;2023-04-15T14:22:07;1.30;;;1.20;;
56728;SDS011;42612;52.232;7.560;2023-04-15T14:24:33;2.30;;;1.17;;
56728;SDS011;42612;52.232;7.560;2023-04-15T14:26:59;2.05;;;1.35;;
56728;SDS011;42612;52.232;7.560;2023-04-15T14:29:26;2.37;;;1.23;;
56728;SDS011;42612;52.232;7.560;2023-04-15T14:31:52;2.60;;;1.30;;
56728;SDS011;42612;52.232;7.560;2023-04-15T14:34:18;1.30;;;1.10;;
56728;SDS011;42612;52.232;7.560;2023-04-15T14:36:46;1.33;;;1.20;;
56728;SDS011;42612;52.232;7.560;2023-04-15T14:39:12;1.98;;;1.15;;
56728;SDS011;42612;52.232;7.560;2023-04-15T14:41:39;1.10;;;1.00;;
56728;SDS011;42612;52.232;7.560;2023-04-15T14:44:05;1.20;;;1.00;;
56728;SDS011;42612;52.232;7.560;2023-04-15T14:46:33;1.33;;;1.23;;
56728;SDS011;42612;52.232;7.560;2023-04-15T14:48:59;1.77;;;1.20;;
56728;SDS011;42612;52.232;7.560;2023-04-15T14:51:25;2.20;;;1.60;;
56728;SDS011;42612;52.232;7.560;2023-04-15T14:53:50;1.48;;;0.98;;
56728;SDS011;42612;52.232;7.560;2023-04-15T14:56:16;1.45;;;1.35;;
56728;SDS011;42612;52.232;7.560;2023-04-15T14:58:42;1.45;;;1.35;;
56728;SDS011;42612;52.232;7.560;2023-04-15T15:01:07;1.73;;;1.45;;
56728;SDS011;42612;52.232;7.560;2023-04-15T15:03:34;3.05;;;1.63;;
56728;SDS011;42612;52.232;7.560;2023-04-15T15:06:00;2.17;;;1.40;;
56728;SDS011;42612;52.232;7.560;2023-04-15T15:08:25;2.25;;;1.65;;
56728;SDS011;42612;52.232;7.560;2023-04-15T15:10:51;5.32;;;1.77;;
56728;SDS011;42612;52.232;7.560;2023-04-15T15:13:17;5.22;;;2.25;;
56728;SDS011;42612;52.232;7.560;2023-04-15T15:15:43;4.35;;;1.80;;
56728;SDS011;42612;52.232;7.560;2023-04-15T15:18:09;3.40;;;2.15;;
56728;SDS011;42612;52.232;7.560;2023-04-15T15:20:35;2.15;;;1.73;;
56728;SDS011;42612;52.232;7.560;2023-04-15T15:23:00;3.58;;;1.90;;
56728;SDS011;42612;52.232;7.560;2023-04-15T15:25:26;1.77;;;1.63;;